Castleton State College, Vermont
Current Conditions -  °F | °C
As of 1:55 AM on Monday 24 Nov 2014 (Local Time) from KRUT Reporting Station
Clear Clear  
Wind Chill: 40°   Ceiling: Unl
Heat Index: 46°   Visibility: 10mi
Dew Point: 32°   Wind: 16mph
Humidity: 57%   Direction: 110°ESE
Pressure: 29.92"   Gusts: 22mph
Location:  43.6401°N, 73.1505°W
Report Text: KRUT 240655Z 11014G19KT 10SM CLR 08/00 A2992 RMK AO1
Loading
Personal Weather Stations






























Interactive Weather Map New forecast layout! Learn more

10-Day Weather Forecast

Advertisements
Track Severe Weather on mobile